MMVR/VER METAR and TAF weather

Enter ICAO airport designator
Station Type Date Time Source
MMVR METAR 2018/12/17 02:42 UTC NOAA

MMVR 170242Z 31002KT 7SM SCT025 SCT200 19/15 A3026 RMK SLP229 52015 952 8/101 HZY LWR CU


Station Type Date Time Source
MMVR Decoded METAR 2018/12/17 02:42 UTC NOAA

Veracruz / Las Bajadas / General Heriberto Jara, Mexico (MMVR) 19-09N 096-11W
Dec 16, 2018 - 09:42 PM EST / 2018.12.17 0242 UTC
Wind: from the NW (310 degrees) at 2 MPH (2 KT):0
Visibility: 7 mile(s):0
Sky conditions: partly cloudy
Temperature: 66 F (19 C)
Dew Point: 59 F (15 C)
Relative Humidity: 77%
Pressure (altimeter): 30.26 in. Hg (1024 hPa)
Pressure tendency: 0.04 inches (1.5 hPa) higher than three hours ago
ob: MMVR 170242Z 31002KT 7SM SCT025 SCT200 19/15 A3026 RMK SLP229 52015 952 8/101 HZY LWR CU
cycle: 2

Station Type Date Time Source
MMVR TAF 2018/12/16 18:45 UTC NOAA

TAF MMVR 161638Z 1618/1718 02010KT P6SM BKN020 BKN070 TX26/1620Z TN18/1712Z
FM162100 06012KT P6SM SCT020 BKN070
FM171200 00000KT 3SM HZ OVC015
FM171500 10010KT 5SM HZ SCT015


Example: see airport list